createdAt,value
2023-03-19T00:04:39.566Z,4.35
2023-03-19T00:09:44.683Z,4.29
2023-03-19T00:14:48.607Z,4.24
2023-03-19T00:19:52.446Z,4.18
2023-03-19T00:24:56.268Z,4.12
2023-03-19T00:30:00.757Z,4.02
2023-03-19T00:35:09.198Z,3.97
2023-03-19T00:40:13.990Z,3.84
2023-03-19T00:45:17.692Z,3.76
2023-03-19T00:50:22.193Z,3.72
2023-03-19T00:55:27.774Z,3.63
2023-03-19T01:00:31.604Z,3.56
2023-03-19T01:05:39.777Z,3.47
2023-03-19T01:10:46.194Z,3.42
2023-03-19T01:15:53.543Z,3.37
2023-03-19T01:21:00.134Z,3.32
2023-03-19T01:26:07.853Z,3.30
2023-03-19T01:31:12.824Z,3.32
2023-03-19T01:36:40.625Z,3.34
2023-03-19T01:41:46.201Z,3.34
2023-03-19T01:47:20.173Z,3.34
2023-03-19T01:52:47.482Z,3.36
2023-03-19T01:58:02.252Z,3.34
2023-03-19T02:03:22.513Z,3.33
2023-03-19T02:08:28.660Z,3.29
2023-03-19T02:13:32.560Z,3.21
2023-03-19T02:18:37.618Z,3.10
2023-03-19T02:24:12.446Z,3.01
2023-03-19T02:29:34.290Z,2.91
2023-03-19T02:34:41.456Z,2.86
2023-03-19T02:39:52.153Z,2.84
2023-03-19T02:44:58.210Z,2.85
2023-03-19T02:50:02.111Z,2.87
2023-03-19T02:55:08.298Z,2.86
2023-03-19T03:00:13.820Z,2.92
2023-03-19T03:05:18.055Z,2.97
2023-03-19T03:10:22.002Z,2.98
2023-03-19T03:15:27.063Z,2.95
2023-03-19T03:20:30.986Z,2.91
2023-03-19T03:25:36.645Z,2.89
2023-03-19T03:30:40.426Z,2.86
2023-03-19T03:35:44.928Z,2.79
2023-03-19T03:40:56.767Z,2.69
2023-03-19T03:46:02.778Z,2.55
2023-03-19T03:51:09.790Z,2.42
2023-03-19T03:56:14.387Z,2.34
2023-03-19T04:01:19.254Z,2.35
2023-03-19T04:06:27.054Z,2.33
2023-03-19T04:11:57.679Z,2.35
2023-03-19T04:17:02.541Z,2.37
2023-03-19T04:22:08.231Z,2.43
2023-03-19T04:27:13.237Z,2.48
2023-03-19T04:32:19.168Z,2.52
2023-03-19T04:37:25.064Z,2.54
2023-03-19T04:42:30.385Z,2.55
2023-03-19T04:47:45.782Z,2.55
2023-03-19T04:52:49.997Z,2.57
2023-03-19T04:57:54.945Z,2.57
2023-03-19T05:03:01.195Z,2.58
2023-03-19T05:08:07.833Z,2.59
2023-03-19T05:13:13.725Z,2.61
2023-03-19T05:18:23.384Z,2.63
2023-03-19T05:23:29.168Z,2.64
2023-03-19T05:28:40.464Z,2.70
2023-03-19T05:33:44.644Z,2.80
2023-03-19T05:38:49.021Z,2.92
2023-03-19T05:43:58.927Z,3.06
2023-03-19T05:49:18.806Z,3.22
2023-03-19T05:54:23.142Z,3.39
2023-03-19T05:59:43.002Z,3.65
2023-03-19T06:05:12.781Z,4.00
2023-03-19T06:10:16.877Z,4.33
2023-03-19T06:15:33.193Z,4.74
2023-03-19T06:20:53.389Z,5.17
2023-03-19T06:25:57.275Z,5.52
2023-03-19T06:31:03.160Z,5.85
2023-03-19T06:36:26.837Z,6.14
2023-03-19T06:41:31.151Z,6.34
2023-03-19T06:46:43.168Z,6.57
2023-03-19T06:51:47.926Z,6.80
2023-03-19T06:56:52.519Z,7.03
2023-03-19T07:01:56.553Z,7.29
2023-03-19T07:07:00.334Z,7.53
2023-03-19T07:12:05.720Z,7.76
2023-03-19T07:17:11.804Z,7.99
2023-03-19T07:22:16.512Z,8.28
2023-03-19T07:27:21.661Z,8.61
2023-03-19T07:32:26.338Z,8.94
2023-03-19T07:37:30.135Z,9.18
2023-03-19T07:42:34.479Z,9.35
2023-03-19T07:47:38.404Z,9.64
2023-03-19T07:52:42.322Z,9.98
2023-03-19T07:57:46.030Z,10.30
2023-03-19T08:02:49.965Z,10.58
2023-03-19T08:07:53.611Z,10.77
2023-03-19T08:12:57.460Z,11.04
2023-03-19T08:18:04.273Z,11.27
2023-03-19T08:23:08.885Z,11.49
2023-03-19T08:28:12.780Z,11.66
2023-03-19T08:33:17.069Z,11.74
2023-03-19T08:38:20.993Z,11.94
2023-03-19T08:43:25.658Z,12.06
2023-03-19T08:48:31.041Z,12.25
2023-03-19T08:53:34.856Z,12.56
2023-03-19T08:58:40.463Z,12.95
2023-03-19T09:03:45.635Z,13.27
2023-03-19T09:08:49.375Z,13.48
2023-03-19T09:13:53.307Z,13.66
2023-03-19T09:18:59.322Z,13.89
2023-03-19T09:24:04.130Z,14.22
2023-03-19T09:29:08.135Z,14.60
2023-03-19T09:34:14.146Z,14.91
2023-03-19T09:39:17.826Z,15.11
2023-03-19T09:44:31.036Z,15.32
2023-03-19T09:49:39.706Z,15.41
2023-03-19T09:54:48.670Z,15.51
2023-03-19T09:59:53.548Z,15.58
2023-03-19T10:05:09.611Z,15.67
2023-03-19T10:10:27.301Z,15.83
2023-03-19T10:15:37.331Z,15.97
2023-03-19T10:20:44.221Z,16.17
2023-03-19T10:25:48.284Z,16.27
2023-03-19T10:31:17.949Z,16.33
2023-03-19T10:36:22.845Z,16.49
2023-03-19T10:41:44.736Z,16.50
2023-03-19T10:46:48.494Z,16.47
2023-03-19T10:51:52.966Z,16.55
2023-03-19T10:56:59.441Z,16.67
2023-03-19T11:02:19.683Z,16.90
2023-03-19T11:07:25.785Z,17.20
2023-03-19T11:12:34.439Z,17.45
2023-03-19T11:17:59.825Z,17.79
2023-03-19T11:23:09.678Z,18.01
2023-03-19T11:28:21.542Z,18.14
2023-03-19T11:34:03.583Z,18.07
2023-03-19T11:39:19.104Z,18.04
2023-03-19T11:44:34.272Z,18.14
2023-03-19T11:49:40.719Z,18.32
2023-03-19T11:55:13.322Z,18.46
2023-03-19T12:00:44.047Z,18.44
2023-03-19T12:05:57.479Z,18.46
2023-03-19T12:11:17.858Z,18.61
2023-03-19T12:16:27.531Z,18.54
2023-03-19T12:21:50.940Z,18.44
2023-03-19T12:27:37.031Z,18.33
2023-03-19T12:33:07.651Z,18.10
2023-03-19T12:38:24.587Z,18.08
2023-03-19T12:43:33.270Z,18.28
2023-03-19T12:48:45.883Z,18.54
2023-03-19T12:54:16.274Z,18.70
2023-03-19T12:59:57.883Z,18.82
2023-03-19T13:05:27.435Z,18.87
2023-03-19T13:10:32.916Z,18.87
2023-03-19T13:15:41.696Z,18.82
2023-03-19T13:21:25.136Z,18.83
2023-03-19T13:26:29.469Z,19.05
2023-03-19T13:31:38.768Z,19.30
2023-03-19T13:36:43.163Z,19.46
2023-03-19T13:42:00.428Z,19.60
2023-03-19T13:47:29.182Z,19.58
2023-03-19T13:52:33.023Z,19.35
2023-03-19T13:57:40.263Z,19.12
2023-03-19T14:02:49.206Z,19.00
2023-03-19T14:07:56.852Z,18.92
2023-03-19T14:13:15.191Z,18.78
2023-03-19T14:18:22.420Z,18.64
2023-03-19T14:23:39.674Z,18.55
2023-03-19T14:28:47.143Z,18.53
2023-03-19T14:34:14.385Z,18.49
2023-03-19T14:39:23.262Z,18.38
2023-03-19T14:44:38.335Z,18.27
2023-03-19T14:50:12.226Z,18.15
2023-03-19T14:55:20.775Z,18.04
2023-03-19T15:00:26.335Z,17.92
2023-03-19T15:05:39.276Z,17.83
2023-03-19T15:10:52.991Z,17.73
2023-03-19T15:16:21.702Z,17.61
2023-03-19T15:21:30.967Z,17.52
2023-03-19T15:26:36.930Z,17.53
2023-03-19T15:31:52.877Z,17.59
2023-03-19T15:37:12.657Z,17.64
2023-03-19T15:42:26.971Z,17.53
2023-03-19T15:47:38.012Z,17.38
2023-03-19T15:52:48.720Z,17.19
2023-03-19T15:57:58.276Z,16.96
2023-03-19T16:03:08.088Z,16.69
2023-03-19T16:08:23.543Z,16.43
2023-03-19T16:13:32.800Z,16.17
2023-03-19T16:19:01.579Z,15.92
2023-03-19T16:24:37.006Z,15.70
2023-03-19T17:20:29.800Z,13.74
2023-03-19T17:25:37.008Z,13.53
2023-03-19T17:30:47.144Z,13.37
2023-03-19T17:35:56.018Z,13.18
2023-03-19T17:41:09.481Z,12.90
2023-03-19T17:46:25.119Z,12.64
2023-03-19T17:51:38.640Z,12.43
2023-03-19T17:56:45.806Z,12.23
2023-03-19T18:02:00.507Z,12.02
2023-03-19T18:07:14.413Z,11.87
2023-03-19T18:12:27.396Z,11.78
2023-03-19T18:22:58.395Z,11.53
2023-03-19T18:28:08.452Z,11.29
2023-03-19T18:33:26.875Z,11.03
2023-03-19T18:38:43.496Z,10.74
2023-03-19T18:43:51.317Z,10.53
2023-03-19T18:49:27.383Z,10.37
2023-03-19T18:54:41.130Z,10.21
2023-03-19T18:59:47.666Z,10.07
2023-03-19T19:04:57.467Z,9.93
2023-03-19T19:10:11.784Z,9.83
2023-03-19T19:15:41.012Z,9.71
2023-03-19T19:20:56.219Z,9.55
2023-03-19T19:26:06.008Z,9.49
2023-03-19T19:31:25.639Z,9.50
2023-03-19T19:36:32.382Z,9.55
2023-03-19T19:41:46.213Z,9.60
2023-03-19T19:46:58.101Z,9.61
2023-03-19T19:52:10.542Z,9.55
2023-03-19T19:57:20.146Z,9.41
2023-03-19T20:02:30.046Z,9.26
2023-03-19T20:07:37.293Z,8.94
2023-03-19T20:12:55.475Z,8.50
2023-03-19T20:18:06.941Z,8.08
2023-03-19T20:23:16.399Z,7.86
2023-03-19T20:28:29.233Z,7.87
2023-03-19T20:33:39.117Z,7.97
2023-03-19T20:38:48.452Z,8.00
2023-03-19T20:43:55.495Z,8.01
2023-03-19T20:49:10.373Z,8.06
2023-03-19T20:54:20.107Z,8.10
2023-03-19T20:59:30.505Z,8.18
2023-03-19T21:04:40.829Z,8.22
2023-03-19T21:09:47.419Z,8.06
2023-03-19T21:14:57.248Z,7.78
2023-03-19T21:20:05.261Z,7.56
2023-03-19T21:25:25.491Z,7.39
2023-03-19T21:30:31.839Z,7.26
2023-03-19T21:35:39.893Z,7.15
2023-03-19T21:40:45.596Z,7.01
2023-03-19T21:45:53.516Z,6.97
2023-03-19T21:50:58.684Z,7.13
2023-03-19T21:56:09.196Z,7.34
2023-03-19T22:01:19.916Z,7.56
2023-03-19T22:06:24.698Z,7.70
2023-03-19T22:11:32.255Z,7.77
2023-03-19T22:16:36.507Z,7.83
2023-03-19T22:21:40.352Z,7.91
2023-03-19T22:26:46.815Z,7.95
2023-03-19T22:31:51.879Z,7.99
2023-03-19T22:36:57.280Z,7.99
2023-03-19T22:42:01.133Z,7.98
2023-03-19T22:47:05.059Z,7.95
2023-03-19T22:52:10.662Z,7.87
2023-03-19T22:57:17.751Z,7.81
2023-03-19T23:02:21.450Z,7.79
2023-03-19T23:07:25.199Z,7.76
2023-03-19T23:12:29.065Z,7.67
2023-03-19T23:17:36.198Z,7.59
2023-03-19T23:22:40.032Z,7.53
2023-03-19T23:27:45.746Z,7.52
2023-03-19T23:32:50.033Z,7.48
2023-03-19T23:37:56.926Z,7.45
2023-03-19T23:43:04.810Z,7.41
2023-03-19T23:48:15.857Z,7.38
2023-03-19T23:53:22.357Z,7.36
2023-03-19T23:58:43.337Z,7.36
